Boron, California
Current Conditions -  °F | °C
As of 5:55 PM on Wednesday 26 Nov 2014 (Local Time) from K9L2 Reporting Station
Clear Clear  
Wind Chill: 51°   Ceiling: Unl
Heat Index: 51°   Visibility: 10mi
Dew Point:   Wind: 0mph
Humidity: 15%   Direction: NA
Pressure: 30.28"   Gusts: NA
Location:  35°N, 117.65°W
Report Text: K9L2 270155Z AUTO 00000KT 10SM CLR 11/M15 A3028 RMK AO2 SLP266 T01061150 TSNO $
Loading
Personal Weather Stations






























Interactive Weather Map New forecast layout! Learn more

10-Day Weather Forecast

Advertisements
Track Severe Weather on mobile